Lineboro, Maryland
Current Conditions -  °F | °C
As of 2:10 AM on Thursday 23 Oct 2014 (Local Time) from KDMW Reporting Station
Overcast Overcast  
Wind Chill: 10°   Ceiling: 2700
Heat Index: 10°   Visibility: 10mi
Dew Point:   Wind: 10mph
Humidity: 76%   Direction: 320°NW
Pressure: 29.89"   Gusts: 17mph
Location:  39.72°N, 76.84°W
Report Text: KDMW 230610Z AUTO 32009G15KT 10SM OVC027 10/06 A2989 RMK AO2
Loading
Personal Weather Stations






























Interactive Weather Map
Tropical Storm Tracking
New forecast layout! Learn more

10-Day Weather Forecast

Advertisements
Track Severe Weather on mobile